SIN weather

Singapore Changi Airport
Singapore, South East, Singapore

Public forecast

Using degrees Celsius for public forecast. Weather courtesy of forecast.io.

METAR (pilot weather report)

Retrieved 2019/02/18 18:00 UTC (20 minutes ago):

WSSS 181800Z 06004KT 9999 FEW018 BKN150 27/24 Q1012 NOSIG

TAF (pilot weather forecast)

Forecast is more than 6 hours old.

Retrieved 2019/02/18 12:10 UTC (6 hours ago):

TAF WSSS 181100Z 1812/1918 02008KT 9999 SCT020 TEMPO 1907/1910 3000 TSRA FEW012CB BKN015